createdAt,value
2023-03-08T00:01:23.523Z,28.20
2023-03-08T00:03:54.645Z,34.00
2023-03-08T00:06:23.029Z,31.10
2023-03-08T00:08:58.404Z,35.30
2023-03-08T00:11:29.448Z,31.40
2023-03-08T00:13:58.270Z,36.50
2023-03-08T00:16:26.318Z,31.20
2023-03-08T00:18:56.396Z,32.60
2023-03-08T00:21:24.495Z,33.40
2023-03-08T00:23:55.206Z,33.40
2023-03-08T00:26:23.692Z,35.70
2023-03-08T00:28:53.101Z,37.60
2023-03-08T00:31:22.480Z,42.30
2023-03-08T00:33:54.978Z,36.90
2023-03-08T00:36:26.001Z,31.00
2023-03-08T00:38:54.299Z,39.40
2023-03-08T00:41:22.768Z,34.90
2023-03-08T00:43:51.422Z,35.40
2023-03-08T00:46:19.918Z,36.90
2023-03-08T00:48:49.808Z,36.90
2023-03-08T00:51:19.546Z,38.40
2023-03-08T00:53:48.512Z,40.50
2023-03-08T00:56:16.947Z,47.40
2023-03-08T00:58:45.116Z,40.60
2023-03-08T01:01:17.814Z,45.40
2023-03-08T01:03:48.351Z,52.90
2023-03-08T01:06:17.744Z,46.00
2023-03-08T01:08:46.875Z,45.10
2023-03-08T01:11:20.250Z,38.80
2023-03-08T01:13:49.102Z,37.30
2023-03-08T01:16:24.179Z,41.60
2023-03-08T01:18:52.766Z,39.10
2023-03-08T01:21:21.875Z,35.50
2023-03-08T01:23:50.359Z,44.60
2023-03-08T01:26:20.772Z,37.20
2023-03-08T01:28:49.194Z,35.30
2023-03-08T01:31:19.577Z,36.70
2023-03-08T01:33:49.187Z,38.70
2023-03-08T01:36:19.156Z,44.60
2023-03-08T01:38:47.640Z,37.90
2023-03-08T01:41:18.473Z,38.30
2023-03-08T01:43:49.893Z,35.90
2023-03-08T01:46:37.262Z,34.70
2023-03-08T01:49:33.651Z,32.20
2023-03-08T01:52:13.183Z,31.90
2023-03-08T01:55:06.443Z,35.00
2023-03-08T01:57:42.749Z,31.10
2023-03-08T02:00:18.399Z,30.60
2023-03-08T02:02:52.458Z,33.40
2023-03-08T02:05:21.059Z,32.80
2023-03-08T02:07:54.141Z,30.40
2023-03-08T02:10:26.733Z,31.10
2023-03-08T02:12:58.710Z,31.00
2023-03-08T02:15:28.109Z,33.00
2023-03-08T02:17:58.166Z,29.50
2023-03-08T02:20:32.612Z,35.70
2023-03-08T02:23:30.591Z,33.00
2023-03-08T02:26:03.539Z,31.10
2023-03-08T02:28:31.589Z,31.10
2023-03-08T02:30:59.838Z,32.20
2023-03-08T02:33:28.433Z,29.50
2023-03-08T02:35:58.553Z,36.90
2023-03-08T02:38:34.751Z,33.90
2023-03-08T02:41:02.893Z,45.50
2023-03-08T02:43:31.391Z,34.40
2023-03-08T02:46:00.078Z,34.60
2023-03-08T02:48:28.467Z,32.00
2023-03-08T02:50:59.929Z,35.10
2023-03-08T02:53:29.878Z,31.70
2023-03-08T02:55:58.283Z,34.30
2023-03-08T02:58:26.499Z,30.30
2023-03-08T03:00:54.972Z,32.30
2023-03-08T03:03:24.747Z,32.00
2023-03-08T03:05:52.937Z,32.40
2023-03-08T03:08:32.267Z,33.00
2023-03-08T03:11:00.705Z,30.30
2023-03-08T03:13:30.124Z,30.10
2023-03-08T03:15:59.039Z,32.60
2023-03-08T03:18:28.788Z,31.50
2023-03-08T03:21:03.433Z,31.40
2023-03-08T03:23:33.750Z,33.10
2023-03-08T03:26:06.824Z,34.50
2023-03-08T03:28:35.203Z,32.90
2023-03-08T03:31:08.069Z,36.40
2023-03-08T03:33:36.367Z,37.30
2023-03-08T03:36:06.077Z,34.60
2023-03-08T03:41:05.079Z,36.40
2023-03-08T03:43:34.598Z,30.80
2023-03-08T03:46:06.425Z,36.70
2023-03-08T03:48:35.990Z,34.80
2023-03-08T03:51:06.830Z,37.30
2023-03-08T03:53:35.972Z,34.70
2023-03-08T03:56:04.197Z,32.30
2023-03-08T03:58:32.837Z,39.10
2023-03-08T04:01:14.907Z,35.10
2023-03-08T04:03:43.656Z,34.70
2023-03-08T04:06:20.672Z,35.60
2023-03-08T04:08:53.012Z,34.40
2023-03-08T04:11:24.178Z,36.00
2023-03-08T04:13:53.258Z,39.40
2023-03-08T04:16:30.014Z,37.50
2023-03-08T04:19:03.701Z,39.50
2023-03-08T04:21:32.442Z,35.50
2023-03-08T04:24:01.392Z,34.00
2023-03-08T04:26:30.029Z,38.00
2023-03-08T04:29:06.127Z,34.80
2023-03-08T04:31:35.334Z,36.80
2023-03-08T04:34:06.370Z,35.50
2023-03-08T04:36:35.526Z,35.40
2023-03-08T04:39:03.968Z,37.20
2023-03-08T04:41:34.841Z,37.00
2023-03-08T04:44:10.903Z,34.50
2023-03-08T04:46:43.141Z,36.50
2023-03-08T04:49:13.910Z,37.70
2023-03-08T04:51:44.848Z,37.50
2023-03-08T04:54:13.148Z,37.80
2023-03-08T04:56:46.384Z,34.30
2023-03-08T04:59:22.811Z,41.00
2023-03-08T05:01:52.850Z,37.40
2023-03-08T05:04:21.807Z,40.20
2023-03-08T05:06:49.879Z,32.10
2023-03-08T05:09:21.946Z,35.30
2023-03-08T05:11:52.237Z,33.20
2023-03-08T05:14:21.826Z,35.20
2023-03-08T05:16:50.695Z,36.40
2023-03-08T05:19:18.958Z,37.80
2023-03-08T05:21:50.876Z,31.70
2023-03-08T05:24:18.989Z,35.80
2023-03-08T05:26:46.971Z,36.20
2023-03-08T05:29:18.310Z,34.80
2023-03-08T05:31:50.514Z,33.40
2023-03-08T05:34:18.864Z,36.20
2023-03-08T05:36:48.824Z,33.20
2023-03-08T05:39:20.038Z,31.00
2023-03-08T05:41:54.973Z,30.00
2023-03-08T05:44:27.960Z,35.70
2023-03-08T05:46:56.502Z,36.50
2023-03-08T05:51:54.932Z,33.90
2023-03-08T05:54:23.827Z,36.00
2023-03-08T05:56:53.705Z,31.00
2023-03-08T05:59:27.443Z,32.60
2023-03-08T06:01:59.650Z,35.60
2023-03-08T06:04:49.315Z,36.50
2023-03-08T06:07:22.779Z,35.40
2023-03-08T06:10:02.691Z,34.60
2023-03-08T06:12:35.624Z,29.40
2023-03-08T06:15:06.154Z,35.90
2023-03-08T06:17:41.270Z,35.60
2023-03-08T06:20:11.226Z,36.50
2023-03-08T06:22:41.650Z,32.60
2023-03-08T06:25:11.632Z,33.90
2023-03-08T06:27:40.979Z,38.40
2023-03-08T06:30:21.131Z,34.50
2023-03-08T06:32:49.705Z,35.00
2023-03-08T06:35:17.935Z,44.30
2023-03-08T06:37:50.005Z,38.60
2023-03-08T06:40:18.375Z,33.20
2023-03-08T06:42:46.455Z,35.20
2023-03-08T06:45:16.151Z,36.80
2023-03-08T06:47:44.318Z,37.50
2023-03-08T06:50:14.015Z,32.60
2023-03-08T06:52:43.633Z,39.10
2023-03-08T06:55:12.048Z,32.00
2023-03-08T06:57:40.817Z,34.40
2023-03-08T07:00:14.647Z,31.90
2023-03-08T07:02:43.437Z,31.60
2023-03-08T07:05:11.550Z,32.00
2023-03-08T07:07:42.290Z,34.30
2023-03-08T07:10:11.911Z,31.40
2023-03-08T07:12:43.698Z,31.20
2023-03-08T07:15:14.671Z,36.10
2023-03-08T07:17:45.879Z,35.90
2023-03-08T07:20:14.431Z,29.30
2023-03-08T07:22:48.514Z,36.10
2023-03-08T07:25:18.238Z,31.10
2023-03-08T07:27:47.196Z,33.80
2023-03-08T07:30:15.816Z,34.70
2023-03-08T07:32:44.063Z,31.90
2023-03-08T07:35:14.164Z,31.60
2023-03-08T07:37:46.856Z,35.10
2023-03-08T07:40:16.385Z,34.60
2023-03-08T07:42:46.053Z,37.10
2023-03-08T07:45:34.429Z,35.30
2023-03-08T07:48:03.185Z,35.60
2023-03-08T07:50:31.488Z,34.30
2023-03-08T07:53:03.437Z,35.00
2023-03-08T07:55:34.402Z,35.60
2023-03-08T07:58:02.981Z,34.40
2023-03-08T08:00:31.350Z,34.10
2023-03-08T08:02:59.908Z,32.10
2023-03-08T08:05:28.660Z,31.70
2023-03-08T08:07:59.892Z,31.50
2023-03-08T08:10:29.488Z,31.10
2023-03-08T08:12:58.683Z,33.80
2023-03-08T08:15:27.500Z,31.90
2023-03-08T08:17:59.754Z,34.80
2023-03-08T08:20:28.799Z,30.60
2023-03-08T08:22:57.429Z,34.20
2023-03-08T08:25:25.506Z,29.30
2023-03-08T08:27:54.150Z,29.00
2023-03-08T08:30:22.282Z,28.30
2023-03-08T08:32:53.429Z,29.70
2023-03-08T08:35:22.773Z,34.80
2023-03-08T08:37:52.345Z,28.00
2023-03-08T08:40:20.608Z,30.00
2023-03-08T08:42:48.684Z,31.30
2023-03-08T08:45:17.197Z,25.90
2023-03-08T08:47:45.628Z,34.00
2023-03-08T08:50:14.326Z,31.60
2023-03-08T08:52:42.634Z,35.70
2023-03-08T08:55:17.670Z,27.80
2023-03-08T08:57:45.883Z,32.50
2023-03-08T09:00:15.031Z,31.10
2023-03-08T09:02:43.150Z,34.10
2023-03-08T09:05:12.979Z,27.50
2023-03-08T09:07:41.571Z,30.30
2023-03-08T09:10:10.110Z,29.80
2023-03-08T09:12:38.613Z,28.40
2023-03-08T09:15:10.295Z,24.60
2023-03-08T09:17:39.761Z,32.80
2023-03-08T09:20:16.472Z,27.60
2023-03-08T09:22:45.753Z,29.30
2023-03-08T09:25:14.346Z,23.40
2023-03-08T09:27:43.264Z,28.60
2023-03-08T09:30:13.966Z,28.20
2023-03-08T09:32:48.383Z,24.40
2023-03-08T09:35:17.433Z,27.30
2023-03-08T09:37:45.745Z,27.20
2023-03-08T09:40:19.215Z,25.70
2023-03-08T09:42:47.575Z,22.00
2023-03-08T09:45:23.315Z,32.30
2023-03-08T09:48:13.474Z,26.20
2023-03-08T09:50:46.279Z,28.80
2023-03-08T09:53:17.450Z,29.30
2023-03-08T09:55:54.813Z,28.80
2023-03-08T09:58:35.546Z,31.00
2023-03-08T10:01:15.907Z,30.60
2023-03-08T10:04:23.426Z,26.40
2023-03-08T10:06:57.194Z,24.10
2023-03-08T10:09:34.625Z,27.60
2023-03-08T10:12:13.462Z,29.30
2023-03-08T10:14:44.191Z,28.60
2023-03-08T10:17:17.384Z,26.50
2023-03-08T10:20:14.561Z,33.80
2023-03-08T10:22:46.880Z,25.80
2023-03-08T10:25:26.602Z,27.30
2023-03-08T10:27:56.627Z,25.50
2023-03-08T10:30:33.156Z,25.10
2023-03-08T10:33:03.547Z,33.00
2023-03-08T10:35:44.114Z,34.30
2023-03-08T10:38:16.576Z,30.50
2023-03-08T10:40:45.656Z,29.20
2023-03-08T10:43:41.310Z,25.60
2023-03-08T10:46:17.482Z,34.00
2023-03-08T10:48:45.893Z,26.90
2023-03-08T10:51:22.196Z,27.00
2023-03-08T10:54:02.758Z,32.80
2023-03-08T10:56:59.989Z,26.00
2023-03-08T10:59:33.249Z,26.00
2023-03-08T11:02:03.667Z,27.30
2023-03-08T11:04:32.261Z,28.00
2023-03-08T11:07:10.673Z,26.70
2023-03-08T11:09:42.391Z,26.40
2023-03-08T11:12:21.255Z,29.90
2023-03-08T11:14:52.683Z,32.20
2023-03-08T11:17:28.299Z,30.80
2023-03-08T11:20:08.101Z,29.70
2023-03-08T11:23:16.382Z,33.70
2023-03-08T11:25:50.754Z,39.90
2023-03-08T11:29:13.038Z,31.70
2023-03-08T11:31:58.646Z,40.70
2023-03-08T11:34:40.213Z,42.40
2023-03-08T11:37:23.363Z,41.20
2023-03-08T11:40:16.673Z,33.80
2023-03-08T11:43:11.528Z,36.50
2023-03-08T11:46:30.935Z,32.20
2023-03-08T11:49:18.803Z,26.30
2023-03-08T11:52:39.172Z,28.60
2023-03-08T11:55:22.615Z,28.00
2023-03-08T11:58:24.730Z,31.10
2023-03-08T12:01:05.292Z,28.80
2023-03-08T12:03:35.536Z,25.90
2023-03-08T12:06:40.980Z,26.50
2023-03-08T12:09:23.690Z,23.40
2023-03-08T12:11:56.402Z,21.80
2023-03-08T12:14:30.638Z,24.40
2023-03-08T12:17:13.683Z,19.90
2023-03-08T12:19:46.387Z,19.50
2023-03-08T12:22:33.757Z,17.80
2023-03-08T12:25:09.905Z,21.30
2023-03-08T12:27:44.551Z,15.80
2023-03-08T12:30:40.569Z,21.80
2023-03-08T12:33:11.400Z,18.30
2023-03-08T12:35:51.156Z,18.40
2023-03-08T12:38:20.159Z,19.20
2023-03-08T12:40:50.867Z,20.70
2023-03-08T12:43:22.433Z,17.50
2023-03-08T12:45:59.940Z,18.80
2023-03-08T12:48:32.074Z,18.20
2023-03-08T12:51:02.350Z,19.00
2023-03-08T12:53:38.310Z,17.30
2023-03-08T12:56:09.319Z,16.00
2023-03-08T12:59:01.162Z,12.90
2023-03-08T13:01:32.521Z,14.00
2023-03-08T13:04:04.485Z,11.40
2023-03-08T13:07:09.879Z,12.90
2023-03-08T13:09:47.046Z,12.80
2023-03-08T13:12:16.980Z,14.70
2023-03-08T13:15:24.751Z,10.30
2023-03-08T13:18:00.884Z,14.30
2023-03-08T13:20:36.299Z,16.70
2023-03-08T13:23:08.622Z,16.40
2023-03-08T13:26:06.199Z,19.90
2023-03-08T13:28:47.078Z,21.80
2023-03-08T13:31:24.528Z,21.30
2023-03-08T13:33:55.772Z,22.10
2023-03-08T13:36:29.197Z,18.10
2023-03-08T13:39:01.635Z,22.00
2023-03-08T13:41:39.057Z,24.40
2023-03-08T13:44:19.522Z,21.40
2023-03-08T13:46:49.492Z,20.80
2023-03-08T13:49:27.069Z,16.90
2023-03-08T13:52:00.392Z,20.20
2023-03-08T13:54:37.551Z,20.50
2023-03-08T13:57:07.623Z,19.00
2023-03-08T13:59:38.158Z,19.90
2023-03-08T14:02:26.922Z,17.70
2023-03-08T14:04:55.470Z,17.30
2023-03-08T14:07:29.227Z,19.70
2023-03-08T14:09:57.923Z,23.10
2023-03-08T14:12:28.664Z,17.00
2023-03-08T14:15:03.256Z,18.20
2023-03-08T14:17:34.808Z,17.60
2023-03-08T14:20:20.265Z,16.80
2023-03-08T14:22:53.346Z,16.20
2023-03-08T14:25:30.618Z,16.80
2023-03-08T14:27:59.617Z,19.30
2023-03-08T14:30:30.189Z,21.30
2023-03-08T14:33:41.841Z,14.80
2023-03-08T14:36:10.519Z,18.30
2023-03-08T14:38:38.567Z,15.20
2023-03-08T14:41:06.911Z,18.90
2023-03-08T14:43:34.869Z,19.30
2023-03-08T14:46:06.954Z,22.70
2023-03-08T14:48:36.410Z,17.60
2023-03-08T14:51:25.335Z,20.80
2023-03-08T14:54:02.134Z,20.60
2023-03-08T14:56:33.235Z,17.70
2023-03-08T14:59:02.422Z,20.00
2023-03-08T15:01:35.711Z,16.30
2023-03-08T15:04:05.101Z,16.90
2023-03-08T15:06:34.937Z,20.60
2023-03-08T15:09:04.108Z,22.30
2023-03-08T15:11:32.173Z,19.00
2023-03-08T15:14:00.215Z,22.60
2023-03-08T15:16:31.210Z,22.40
2023-03-08T15:18:59.572Z,21.20
2023-03-08T15:21:28.648Z,21.70
2023-03-08T15:23:57.914Z,24.00
2023-03-08T15:26:28.262Z,21.60
2023-03-08T15:28:57.657Z,22.10
2023-03-08T15:31:27.067Z,23.40
2023-03-08T15:33:55.230Z,22.40
2023-03-08T15:36:25.430Z,22.20
2023-03-08T15:38:53.561Z,24.60
2023-03-08T15:41:22.425Z,20.10
2023-03-08T15:43:51.543Z,21.90
2023-03-08T15:46:21.983Z,20.60
2023-03-08T15:48:51.353Z,22.50
2023-03-08T15:51:21.184Z,24.00
2023-03-08T15:53:49.309Z,22.10
2023-03-08T15:56:17.692Z,27.50
2023-03-08T15:58:46.784Z,26.50
2023-03-08T16:01:14.874Z,23.50
2023-03-08T16:03:43.011Z,23.50
2023-03-08T16:06:12.383Z,20.80
2023-03-08T16:11:15.707Z,22.30
2023-03-08T16:13:48.496Z,22.80
2023-03-08T16:16:16.556Z,22.80
2023-03-08T16:18:48.912Z,18.50
2023-03-08T16:21:17.635Z,15.20
2023-03-08T16:23:45.662Z,13.80
2023-03-08T16:26:17.000Z,13.70
2023-03-08T16:28:46.943Z,15.20
2023-03-08T16:31:15.751Z,16.90
2023-03-08T16:33:44.953Z,18.40
2023-03-08T16:36:13.479Z,18.30
2023-03-08T16:38:44.010Z,18.90
2023-03-08T16:41:15.157Z,15.90
2023-03-08T16:43:48.714Z,18.60
2023-03-08T16:46:21.550Z,20.00
2023-03-08T16:48:54.649Z,25.60
2023-03-08T16:51:27.890Z,24.70
2023-03-08T16:53:56.203Z,18.30
2023-03-08T16:56:26.713Z,21.20
2023-03-08T16:58:56.149Z,27.60
2023-03-08T17:01:30.150Z,18.30
2023-03-08T17:03:58.691Z,20.70
2023-03-08T17:06:29.384Z,23.00
2023-03-08T17:08:59.051Z,21.40
2023-03-08T17:11:29.113Z,22.60
2023-03-08T17:13:59.973Z,24.40
2023-03-08T17:16:35.984Z,24.00
2023-03-08T17:19:07.359Z,24.00
2023-03-08T17:21:39.028Z,22.70
2023-03-08T17:24:12.961Z,22.40
2023-03-08T17:26:43.029Z,23.70
2023-03-08T17:29:13.224Z,28.90
2023-03-08T17:34:09.454Z,29.40
2023-03-08T17:36:38.293Z,29.30
2023-03-08T17:39:07.211Z,46.70
2023-03-08T17:41:38.842Z,100.50
2023-03-08T17:44:07.024Z,44.00
2023-03-08T17:46:35.188Z,32.80
2023-03-08T17:49:03.940Z,41.60
2023-03-08T17:51:32.869Z,41.40
2023-03-08T17:54:07.612Z,54.30
2023-03-08T17:56:38.685Z,43.20
2023-03-08T17:59:08.013Z,52.90
2023-03-08T18:01:37.957Z,47.50
2023-03-08T18:04:07.486Z,33.00
2023-03-08T18:06:38.274Z,30.80
2023-03-08T18:09:12.417Z,31.80
2023-03-08T18:11:41.562Z,35.30
2023-03-08T18:14:12.134Z,33.70
2023-03-08T18:16:41.444Z,32.10
2023-03-08T18:19:16.853Z,42.00
2023-03-08T18:21:54.107Z,43.30
2023-03-08T18:24:22.223Z,43.40
2023-03-08T18:26:53.841Z,43.60
2023-03-08T18:29:22.043Z,34.20
2023-03-08T18:31:50.405Z,37.60
2023-03-08T18:34:18.890Z,38.60
2023-03-08T18:36:46.946Z,35.10
2023-03-08T18:39:15.016Z,34.20
2023-03-08T18:41:43.150Z,42.10
2023-03-08T18:44:14.694Z,47.40
2023-03-08T18:46:44.059Z,47.40
2023-03-08T18:49:12.811Z,37.50
2023-03-08T18:51:41.884Z,32.10
2023-03-08T18:54:20.542Z,27.90
2023-03-08T18:56:50.072Z,31.50
2023-03-08T18:59:18.148Z,31.50
2023-03-08T19:01:50.389Z,32.80
2023-03-08T19:04:18.813Z,31.10
2023-03-08T19:06:47.009Z,30.60
2023-03-08T19:09:17.213Z,33.90
2023-03-08T19:11:48.536Z,40.20
2023-03-08T19:14:16.897Z,38.70
2023-03-08T19:16:46.503Z,41.80
2023-03-08T19:19:15.445Z,40.50
2023-03-08T19:21:46.686Z,41.60
2023-03-08T19:26:47.574Z,40.40
2023-03-08T19:29:16.983Z,41.50
2023-03-08T19:31:48.896Z,35.00
2023-03-08T19:34:21.833Z,37.30
2023-03-08T19:36:50.204Z,43.10
2023-03-08T19:39:21.737Z,47.90
2023-03-08T19:41:55.727Z,42.40
2023-03-08T19:44:24.061Z,45.00
2023-03-08T19:49:49.799Z,74.10
2023-03-08T19:52:18.368Z,71.60
2023-03-08T19:54:49.383Z,64.50
2023-03-08T19:57:17.713Z,39.20
2023-03-08T19:59:45.878Z,36.00
2023-03-08T20:02:20.475Z,43.30
2023-03-08T20:04:48.718Z,36.90
2023-03-08T20:07:17.391Z,40.30
2023-03-08T20:09:46.109Z,39.20
2023-03-08T20:12:19.231Z,35.60
2023-03-08T20:14:50.365Z,30.50
2023-03-08T20:17:18.434Z,36.80
2023-03-08T20:19:50.351Z,31.90
2023-03-08T20:22:18.461Z,39.60
2023-03-08T20:24:52.229Z,34.90
2023-03-08T20:27:21.106Z,30.00
2023-03-08T20:29:51.839Z,34.30
2023-03-08T20:32:20.512Z,32.40
2023-03-08T20:34:49.395Z,31.10
2023-03-08T20:37:19.855Z,32.60
2023-03-08T20:39:54.452Z,39.90
2023-03-08T20:42:26.990Z,30.20
2023-03-08T20:44:55.226Z,34.70
2023-03-08T20:47:23.565Z,37.50
2023-03-08T20:49:51.844Z,37.80
2023-03-08T20:52:20.202Z,30.60
2023-03-08T20:54:48.298Z,26.70
2023-03-08T20:57:16.356Z,35.80
2023-03-08T20:59:44.620Z,36.90
2023-03-08T21:02:12.825Z,33.30
2023-03-08T21:04:41.015Z,38.00
2023-03-08T21:07:13.000Z,37.60
2023-03-08T21:09:43.674Z,36.30
2023-03-08T21:12:11.778Z,32.50
2023-03-08T21:14:45.128Z,34.60
2023-03-08T21:17:13.308Z,32.90
2023-03-08T21:19:41.282Z,36.50
2023-03-08T21:22:10.781Z,35.20
2023-03-08T21:24:39.416Z,34.80
2023-03-08T21:27:10.910Z,34.20
2023-03-08T21:29:38.981Z,34.40
2023-03-08T21:32:06.994Z,34.40
2023-03-08T21:34:35.562Z,39.60
2023-03-08T21:37:10.125Z,40.60
2023-03-08T21:39:38.266Z,54.00
2023-03-08T21:42:06.943Z,41.90
2023-03-08T21:44:35.482Z,36.40
2023-03-08T21:47:08.739Z,36.40
2023-03-08T21:49:37.532Z,41.60
2023-03-08T21:52:09.805Z,44.40
2023-03-08T21:54:38.215Z,43.40
2023-03-08T21:57:06.350Z,36.00
2023-03-08T21:59:34.500Z,37.00
2023-03-08T22:02:02.937Z,33.50
2023-03-08T22:04:31.188Z,40.20
2023-03-08T22:06:59.243Z,30.40
2023-03-08T22:09:29.801Z,32.50
2023-03-08T22:11:59.695Z,32.20
2023-03-08T22:14:28.439Z,33.90
2023-03-08T22:17:03.301Z,32.70
2023-03-08T22:19:32.163Z,37.40
2023-03-08T22:22:00.956Z,40.50
2023-03-08T22:24:32.994Z,28.90
2023-03-08T22:27:01.649Z,40.30
2023-03-08T22:29:29.786Z,37.00
2023-03-08T22:31:57.904Z,37.00
2023-03-08T22:34:25.919Z,33.10
2023-03-08T22:36:55.175Z,34.40
2023-03-08T22:39:23.605Z,34.40
2023-03-08T22:41:51.632Z,32.40
2023-03-08T22:44:19.814Z,37.10
2023-03-08T22:46:48.645Z,37.20
2023-03-08T22:49:17.165Z,39.60
2023-03-08T22:51:45.453Z,39.80
2023-03-08T22:54:18.189Z,38.10
2023-03-08T22:56:47.019Z,36.10
2023-03-08T22:59:16.186Z,32.80
2023-03-08T23:01:44.588Z,34.60
2023-03-08T23:04:13.679Z,35.70
2023-03-08T23:06:43.337Z,36.70
2023-03-08T23:09:12.902Z,37.00
2023-03-08T23:11:45.602Z,33.50
2023-03-08T23:14:16.681Z,38.00
2023-03-08T23:16:45.994Z,38.90
2023-03-08T23:19:17.268Z,34.60
2023-03-08T23:22:05.199Z,38.40
2023-03-08T23:24:40.802Z,37.50
2023-03-08T23:27:09.881Z,31.80
2023-03-08T23:29:38.113Z,27.10
2023-03-08T23:32:07.336Z,29.30
